createdAt,value
2019-04-21T00:00:37.534Z,14.65
2019-04-21T00:01:47.381Z,13.88
2019-04-21T00:02:50.905Z,12.75
2019-04-21T00:04:03.775Z,12.95
2019-04-21T00:05:26.056Z,15.83
2019-04-21T00:06:31.490Z,12.60
2019-04-21T00:07:36.554Z,13.45
2019-04-21T00:08:52.211Z,11.28
2019-04-21T00:09:52.311Z,11.75
2019-04-21T00:11:02.906Z,12.70
2019-04-21T00:12:02.569Z,13.88
2019-04-21T00:13:07.822Z,15.80
2019-04-21T00:14:14.112Z,13.18
2019-04-21T00:15:19.370Z,11.45
2019-04-21T00:16:17.156Z,13.00
2019-04-21T00:17:24.887Z,12.80
2019-04-21T00:18:54.882Z,14.20
2019-04-21T00:20:09.250Z,13.20
2019-04-21T00:21:14.923Z,14.55
2019-04-21T00:22:23.145Z,16.80
2019-04-21T00:23:37.761Z,16.62
2019-04-21T00:24:41.327Z,14.95
2019-04-21T00:25:47.875Z,14.85
2019-04-21T00:27:04.195Z,16.40
2019-04-21T00:28:16.878Z,13.70
2019-04-21T00:29:25.648Z,14.60
2019-04-21T00:30:30.357Z,16.37
2019-04-21T00:31:28.313Z,14.78
2019-04-21T00:32:32.000Z,15.08
2019-04-21T00:33:34.312Z,14.00
2019-04-21T00:34:40.085Z,15.55
2019-04-21T00:35:54.281Z,15.15
2019-04-21T00:37:03.119Z,13.75
2019-04-21T00:38:17.021Z,15.23
2019-04-21T00:39:36.413Z,13.05
2019-04-21T00:40:36.923Z,14.85
2019-04-21T00:41:43.937Z,17.00
2019-04-21T00:42:48.450Z,13.53
2019-04-21T00:43:50.919Z,12.68
2019-04-21T00:45:06.610Z,12.28
2019-04-21T00:46:03.441Z,13.95
2019-04-21T00:47:24.698Z,13.13
2019-04-21T00:48:30.398Z,15.28
2019-04-21T00:49:27.056Z,12.25
2019-04-21T00:51:05.443Z,12.00
2019-04-21T00:52:29.104Z,12.53
2019-04-21T00:53:35.765Z,10.90
2019-04-21T00:54:51.949Z,13.05
2019-04-21T00:56:01.506Z,12.53
2019-04-21T00:57:08.587Z,13.28
2019-04-21T00:58:23.904Z,12.78
2019-04-21T00:59:13.900Z,12.82
2019-04-21T01:00:22.277Z,17.98
2019-04-21T01:01:24.901Z,16.00
2019-04-21T01:02:39.917Z,18.30
2019-04-21T01:03:46.063Z,20.72
2019-04-21T01:04:50.076Z,22.50
2019-04-21T01:05:57.563Z,24.92
2019-04-21T01:07:02.970Z,24.95
2019-04-21T01:08:09.417Z,23.50
2019-04-21T01:09:14.946Z,27.35
2019-04-21T01:10:21.111Z,29.65
2019-04-21T01:11:31.703Z,26.77
2019-04-21T01:12:41.776Z,25.00
2019-04-21T01:13:54.664Z,25.65
2019-04-21T01:15:04.713Z,26.42
2019-04-21T01:16:12.624Z,27.90
2019-04-21T01:17:12.996Z,22.70
2019-04-21T01:18:20.738Z,19.82
2019-04-21T01:19:25.226Z,16.75
2019-04-21T01:20:17.671Z,15.98
2019-04-21T01:21:20.518Z,18.57
2019-04-21T01:22:26.427Z,18.12
2019-04-21T01:23:32.163Z,17.37
2019-04-21T01:24:43.040Z,17.65
2019-04-21T01:26:00.765Z,20.37
2019-04-21T01:27:02.257Z,22.30
2019-04-21T01:28:18.794Z,20.90
2019-04-21T01:29:22.766Z,25.43
2019-04-21T01:30:36.584Z,28.12
2019-04-21T01:31:36.666Z,23.98
2019-04-21T01:32:53.290Z,27.48
2019-04-21T01:34:01.224Z,27.55
2019-04-21T01:35:02.701Z,27.87
2019-04-21T01:36:12.294Z,28.80
2019-04-21T01:37:30.829Z,34.75
2019-04-21T01:38:32.611Z,33.70
2019-04-21T01:39:41.375Z,36.05
2019-04-21T01:41:03.576Z,35.33
2019-04-21T01:41:52.557Z,35.63
2019-04-21T01:42:56.770Z,36.33
2019-04-21T01:44:01.122Z,37.88
2019-04-21T01:45:11.472Z,33.75
2019-04-21T01:46:14.163Z,30.60
2019-04-21T01:47:20.392Z,30.60
2019-04-21T01:48:33.300Z,30.15
2019-04-21T01:49:33.468Z,35.08
2019-04-21T01:50:46.833Z,31.97
2019-04-21T01:52:08.940Z,32.88
2019-04-21T01:53:11.125Z,32.70
2019-04-21T01:54:37.657Z,32.53
2019-04-21T01:56:00.581Z,29.77
2019-04-21T01:57:12.990Z,24.52
2019-04-21T01:58:19.770Z,22.67
2019-04-21T01:59:31.996Z,25.40
2019-04-21T02:00:45.571Z,26.57
2019-04-21T02:02:02.375Z,23.30
2019-04-21T02:03:09.899Z,24.07
2019-04-21T02:04:15.028Z,28.12
2019-04-21T02:05:28.390Z,29.00
2019-04-21T02:06:33.384Z,28.10
2019-04-21T02:07:40.569Z,31.12
2019-04-21T02:08:44.919Z,29.20
2019-04-21T02:09:51.298Z,33.02
2019-04-21T02:12:08.740Z,36.25
2019-04-21T02:13:11.838Z,30.30
2019-04-21T02:14:22.801Z,31.33
2019-04-21T02:15:29.920Z,30.30
2019-04-21T02:16:34.529Z,31.10
2019-04-21T02:17:45.309Z,32.42
2019-04-21T02:18:49.374Z,33.30
2019-04-21T02:19:56.431Z,32.25
2019-04-21T02:20:55.392Z,30.48
2019-04-21T02:22:11.410Z,33.95
2019-04-21T02:23:34.397Z,32.15
2019-04-21T02:24:40.037Z,30.60
2019-04-21T02:25:38.389Z,33.10
2019-04-21T02:26:44.007Z,33.28
2019-04-21T02:27:54.557Z,31.35
2019-04-21T02:29:01.974Z,31.97
2019-04-21T02:30:12.148Z,29.87
2019-04-21T02:31:41.850Z,26.33
2019-04-21T02:33:50.783Z,28.00
2019-04-21T02:35:03.167Z,25.20
2019-04-21T02:38:11.854Z,22.75
2019-04-21T02:39:31.747Z,23.55
2019-04-21T02:40:35.658Z,21.70
2019-04-21T02:41:35.529Z,20.15
2019-04-21T02:42:46.415Z,17.67
2019-04-21T02:43:50.176Z,20.37
2019-04-21T02:44:56.340Z,21.15
2019-04-21T02:46:54.372Z,20.32
2019-04-21T02:49:45.187Z,19.05
2019-04-21T02:50:33.485Z,18.70
2019-04-21T02:52:43.709Z,17.10
2019-04-21T02:54:11.966Z,20.77
2019-04-21T02:54:58.539Z,17.48
2019-04-21T02:56:11.104Z,18.23
2019-04-21T02:57:18.974Z,20.37
2019-04-21T02:58:34.381Z,19.87
2019-04-21T02:59:49.675Z,18.12
2019-04-21T03:01:31.151Z,18.23
2019-04-21T03:02:46.951Z,16.82
2019-04-21T03:03:52.517Z,19.52
2019-04-21T03:05:32.029Z,16.23
2019-04-21T03:06:54.216Z,18.65
2019-04-21T03:07:55.527Z,19.98
2019-04-21T03:09:01.215Z,18.02
2019-04-21T03:10:26.709Z,16.67
2019-04-21T03:11:12.283Z,16.25
2019-04-21T03:12:20.625Z,20.12
2019-04-21T03:15:54.783Z,20.30
2019-04-21T03:16:40.654Z,20.65
2019-04-21T03:18:06.610Z,24.23
2019-04-21T03:19:06.794Z,22.17
2019-04-21T03:20:16.994Z,24.65
2019-04-21T03:21:25.935Z,26.23
2019-04-21T03:22:26.475Z,27.80
2019-04-21T03:23:46.513Z,28.30
2019-04-21T03:25:52.052Z,41.88
2019-04-21T03:27:12.547Z,53.60
2019-04-21T03:28:11.683Z,60.40
2019-04-21T03:30:52.937Z,62.05
2019-04-21T03:31:49.459Z,58.65
2019-04-21T03:33:08.880Z,66.33
2019-04-21T03:34:21.416Z,55.30
2019-04-21T03:38:16.597Z,37.03
2019-04-21T03:39:18.447Z,33.60
2019-04-21T03:40:22.165Z,37.70
2019-04-21T03:41:40.309Z,35.33
2019-04-21T03:42:42.499Z,35.78
2019-04-21T03:45:58.296Z,30.40
2019-04-21T03:48:20.790Z,20.72
2019-04-21T03:49:32.499Z,28.02
2019-04-21T03:50:42.775Z,22.40
2019-04-21T03:51:42.196Z,23.62
2019-04-21T03:52:47.799Z,22.95
2019-04-21T03:53:46.227Z,21.30
2019-04-21T04:00:02.738Z,19.40
2019-04-21T04:02:36.600Z,25.23
2019-04-21T04:05:23.908Z,20.90
2019-04-21T04:06:27.993Z,20.85
2019-04-21T04:08:31.940Z,20.30
2019-04-21T04:10:11.796Z,16.65
2019-04-21T04:11:30.093Z,15.70
2019-04-21T04:14:46.178Z,14.20
2019-04-21T04:15:56.450Z,17.45
2019-04-21T04:17:06.067Z,18.55
2019-04-21T04:18:04.126Z,16.32
2019-04-21T04:19:34.609Z,22.60
2019-04-21T04:20:30.283Z,14.55
2019-04-21T04:21:47.663Z,18.57
2019-04-21T04:22:41.039Z,16.12
2019-04-21T04:25:00.990Z,18.80
2019-04-21T04:25:59.128Z,17.48
2019-04-21T04:27:07.956Z,20.20
2019-04-21T04:28:23.076Z,19.80
2019-04-21T04:29:20.389Z,22.60
2019-04-21T04:32:41.892Z,19.35
2019-04-21T04:36:30.339Z,18.65
2019-04-21T04:38:22.344Z,21.75
2019-04-21T04:41:06.107Z,20.88
2019-04-21T04:43:28.578Z,18.12
2019-04-21T04:45:38.469Z,17.42
2019-04-21T04:47:49.846Z,23.12
2019-04-21T04:49:06.137Z,20.17
2019-04-21T04:50:24.332Z,18.30
2019-04-21T04:51:17.004Z,22.20
2019-04-21T04:53:32.868Z,21.02
2019-04-21T04:54:49.271Z,18.67
2019-04-21T04:55:46.038Z,25.05
2019-04-21T04:56:56.335Z,21.45
2019-04-21T04:58:04.763Z,23.25
2019-04-21T04:59:23.257Z,22.27
2019-04-21T05:00:21.353Z,23.60
2019-04-21T05:06:42.138Z,15.83
2019-04-21T05:07:44.667Z,17.02
2019-04-21T05:09:54.064Z,15.40
2019-04-21T05:11:08.018Z,11.40
2019-04-21T05:12:05.958Z,25.65
2019-04-21T05:13:21.917Z,10.60
2019-04-21T05:15:42.486Z,12.93
2019-04-21T05:17:48.362Z,10.43
2019-04-21T05:21:16.091Z,9.45
2019-04-21T05:22:20.221Z,10.60
2019-04-21T05:23:15.717Z,10.98
2019-04-21T05:24:16.314Z,13.10
2019-04-21T05:25:19.561Z,10.80
2019-04-21T05:26:29.906Z,10.45
2019-04-21T05:27:38.634Z,8.25
2019-04-21T05:28:44.690Z,7.55
2019-04-21T05:30:09.986Z,10.20
2019-04-21T05:31:32.322Z,7.92
2019-04-21T05:32:58.284Z,16.37
2019-04-21T05:34:14.969Z,10.30
2019-04-21T05:35:18.595Z,6.60
2019-04-21T05:36:44.316Z,7.83
2019-04-21T05:38:03.115Z,10.00
2019-04-21T05:39:11.553Z,8.65
2019-04-21T05:40:22.190Z,7.28
2019-04-21T05:41:26.681Z,11.33
2019-04-21T05:42:40.014Z,8.13
2019-04-21T05:43:48.034Z,6.30
2019-04-21T05:45:05.463Z,11.20
2019-04-21T05:46:10.451Z,11.75
2019-04-21T05:47:20.352Z,8.38
2019-04-21T05:48:46.516Z,12.90
2019-04-21T05:49:55.497Z,16.57
2019-04-21T05:51:03.698Z,12.78
2019-04-21T05:52:08.138Z,12.63
2019-04-21T05:53:29.570Z,9.08
2019-04-21T05:54:52.933Z,7.97
2019-04-21T05:55:45.566Z,9.48
2019-04-21T05:56:52.270Z,7.45
2019-04-21T05:57:57.312Z,7.05
2019-04-21T05:59:03.410Z,7.60
2019-04-21T06:00:10.125Z,7.37
2019-04-21T06:01:23.747Z,7.92
2019-04-21T06:03:40.605Z,6.37
2019-04-21T06:05:02.042Z,7.25
2019-04-21T06:06:00.361Z,5.72
2019-04-21T06:06:56.818Z,6.62
2019-04-21T06:08:10.373Z,8.73
2019-04-21T06:09:08.347Z,5.20
2019-04-21T06:10:22.217Z,8.20
2019-04-21T06:11:28.877Z,6.87
2019-04-21T06:12:36.098Z,5.78
2019-04-21T06:14:48.455Z,6.15
2019-04-21T06:15:56.961Z,8.55
2019-04-21T06:17:03.305Z,6.30
2019-04-21T06:18:11.711Z,5.28
2019-04-21T06:19:23.648Z,4.55
2019-04-21T06:20:32.177Z,6.55
2019-04-21T06:21:35.441Z,5.20
2019-04-21T06:22:39.672Z,4.92
2019-04-21T06:23:45.593Z,4.92
2019-04-21T06:25:23.385Z,5.62
2019-04-21T06:27:21.033Z,7.20
2019-04-21T06:28:20.296Z,7.30
2019-04-21T06:29:23.723Z,6.75
2019-04-21T06:30:33.188Z,6.55
2019-04-21T06:32:02.306Z,10.75
2019-04-21T06:33:50.718Z,25.53
2019-04-21T06:39:05.127Z,12.13
2019-04-21T06:40:16.879Z,9.90
2019-04-21T06:41:21.370Z,5.47
2019-04-21T06:42:22.307Z,4.73
2019-04-21T06:43:33.205Z,6.20
2019-04-21T06:44:33.537Z,8.07
2019-04-21T06:45:39.998Z,6.50
2019-04-21T06:46:44.609Z,6.50
2019-04-21T06:47:57.547Z,6.37
2019-04-21T06:48:59.560Z,4.90
2019-04-21T06:50:07.564Z,4.17
2019-04-21T06:51:20.495Z,5.00
2019-04-21T06:52:41.945Z,6.13
2019-04-21T06:53:29.241Z,7.17
2019-04-21T06:54:33.893Z,5.93
2019-04-21T06:55:41.913Z,5.10
2019-04-21T06:56:47.928Z,4.20
2019-04-21T06:57:53.206Z,8.93
2019-04-21T06:58:58.008Z,5.53
2019-04-21T06:59:59.863Z,7.97
2019-04-21T07:01:15.580Z,6.83
2019-04-21T07:02:33.343Z,4.53
2019-04-21T07:03:29.438Z,5.83
2019-04-21T07:04:36.730Z,5.77
2019-04-21T07:05:42.719Z,8.43
2019-04-21T07:06:52.101Z,6.13
2019-04-21T07:08:11.277Z,5.40
2019-04-21T07:09:10.106Z,6.07
2019-04-21T07:10:22.023Z,7.70
2019-04-21T07:11:14.031Z,6.60
2019-04-21T07:12:15.607Z,6.47
2019-04-21T07:13:23.662Z,4.70
2019-04-21T07:15:43.524Z,5.33
2019-04-21T07:16:51.022Z,29.90
2019-04-21T07:17:53.100Z,40.23
2019-04-21T07:19:05.660Z,32.43
2019-04-21T07:20:10.089Z,13.03
2019-04-21T07:21:08.175Z,7.43
2019-04-21T07:22:17.669Z,14.80
2019-04-21T07:23:26.032Z,12.37
2019-04-21T07:24:31.970Z,8.60
2019-04-21T07:25:40.924Z,5.83
2019-04-21T07:26:45.883Z,7.17
2019-04-21T07:27:56.678Z,6.80
2019-04-21T07:29:02.951Z,5.60
2019-04-21T07:30:04.372Z,6.67
2019-04-21T07:31:11.184Z,6.73
2019-04-21T07:32:14.059Z,5.67
2019-04-21T07:33:41.970Z,7.27
2019-04-21T07:34:33.283Z,5.97
2019-04-21T07:35:51.776Z,6.70
2019-04-21T07:36:50.861Z,6.40
2019-04-21T07:37:49.093Z,7.80
2019-04-21T07:38:58.950Z,7.10
2019-04-21T07:40:01.875Z,5.97
2019-04-21T07:41:06.240Z,8.27
2019-04-21T07:42:09.503Z,5.70
2019-04-21T07:43:16.612Z,8.30
2019-04-21T07:44:17.078Z,7.87
2019-04-21T07:45:27.783Z,7.60
2019-04-21T07:46:31.424Z,6.10
2019-04-21T07:47:53.088Z,5.77
2019-04-21T07:48:58.743Z,5.40
2019-04-21T07:50:08.687Z,5.20
2019-04-21T07:51:45.624Z,6.07
2019-04-21T07:53:01.139Z,6.10
2019-04-21T07:54:26.968Z,4.50
2019-04-21T07:55:20.002Z,5.80
2019-04-21T07:56:05.570Z,6.87
2019-04-21T07:57:16.939Z,4.73
2019-04-21T07:58:31.831Z,9.20
2019-04-21T07:59:52.371Z,9.67
2019-04-21T08:00:51.136Z,4.73
2019-04-21T08:01:53.237Z,5.20
2019-04-21T08:02:54.478Z,4.67
2019-04-21T08:04:03.402Z,7.57
2019-04-21T08:05:13.046Z,5.50
2019-04-21T08:06:25.331Z,5.47
2019-04-21T08:07:24.490Z,9.30
2019-04-21T08:08:29.658Z,4.63
2019-04-21T08:09:37.175Z,5.97
2019-04-21T08:10:39.230Z,4.53
2019-04-21T08:11:44.211Z,4.87
2019-04-21T08:12:54.429Z,4.03
2019-04-21T08:14:01.081Z,4.50
2019-04-21T08:15:16.933Z,8.60
2019-04-21T08:16:18.096Z,5.33
2019-04-21T08:17:24.516Z,4.20
2019-04-21T08:18:33.682Z,6.53
2019-04-21T08:19:35.228Z,5.20
2019-04-21T08:20:46.281Z,6.57
2019-04-21T08:22:59.297Z,7.87
2019-04-21T08:23:59.913Z,6.20
2019-04-21T08:25:08.762Z,8.63
2019-04-21T08:26:15.648Z,5.67
2019-04-21T08:27:27.799Z,6.07
2019-04-21T08:28:36.835Z,4.70
2019-04-21T08:29:40.396Z,8.63
2019-04-21T08:30:43.194Z,3.97
2019-04-21T08:31:57.243Z,4.47
2019-04-21T08:33:00.502Z,7.20
2019-04-21T08:34:09.890Z,8.80
2019-04-21T08:35:48.687Z,5.60
2019-04-21T08:36:25.042Z,4.57
2019-04-21T08:37:18.525Z,4.60
2019-04-21T08:38:30.213Z,4.20
2019-04-21T08:39:42.065Z,4.63
2019-04-21T08:41:49.636Z,7.93
2019-04-21T08:42:55.067Z,5.73
2019-04-21T08:43:56.130Z,5.37
2019-04-21T08:45:10.765Z,4.47
2019-04-21T08:46:22.709Z,4.17
2019-04-21T08:47:30.073Z,6.20
2019-04-21T08:48:29.025Z,6.97
2019-04-21T08:49:36.363Z,5.07
2019-04-21T08:50:44.555Z,6.63
2019-04-21T08:51:54.904Z,5.37
2019-04-21T08:52:56.453Z,6.53
2019-04-21T08:54:13.415Z,5.77
2019-04-21T08:55:20.049Z,4.60
2019-04-21T08:57:06.065Z,14.20
2019-04-21T08:58:29.181Z,5.67
2019-04-21T08:59:55.192Z,6.33
2019-04-21T09:01:33.368Z,8.93
2019-04-21T09:02:47.530Z,4.77
2019-04-21T09:04:01.211Z,5.83
2019-04-21T09:05:04.683Z,4.60
2019-04-21T09:06:14.484Z,6.07
2019-04-21T09:07:29.154Z,6.10
2019-04-21T09:08:27.671Z,5.63
2019-04-21T09:09:39.630Z,4.67
2019-04-21T09:10:39.587Z,4.83
2019-04-21T09:11:47.536Z,5.53
2019-04-21T09:12:52.059Z,5.03
2019-04-21T09:14:01.027Z,7.47
2019-04-21T09:15:01.228Z,5.47
2019-04-21T09:16:11.137Z,4.80
2019-04-21T09:17:15.329Z,11.17
2019-04-21T09:18:18.582Z,5.87
2019-04-21T09:19:48.374Z,4.93
2019-04-21T09:21:50.502Z,4.73
2019-04-21T09:22:54.296Z,6.60
2019-04-21T09:23:56.048Z,6.10
2019-04-21T09:25:01.556Z,4.53
2019-04-21T09:26:14.101Z,12.73
2019-04-21T09:27:14.223Z,5.83
2019-04-21T09:28:19.860Z,5.83
2019-04-21T09:29:21.858Z,7.50
2019-04-21T09:30:19.816Z,5.10
2019-04-21T09:31:31.994Z,6.43
2019-04-21T09:32:34.489Z,5.83
2019-04-21T09:33:45.403Z,6.30
2019-04-21T09:34:47.097Z,4.63
2019-04-21T09:35:58.789Z,6.97
2019-04-21T09:37:12.422Z,5.30
2019-04-21T09:38:17.838Z,6.80
2019-04-21T09:39:18.273Z,4.83
2019-04-21T09:40:27.372Z,5.73
2019-04-21T09:41:28.352Z,6.53
2019-04-21T09:42:41.533Z,6.87
2019-04-21T09:43:46.218Z,6.57
2019-04-21T09:44:48.374Z,5.10
2019-04-21T09:45:54.136Z,6.53
2019-04-21T09:47:01.967Z,5.10
2019-04-21T09:48:11.777Z,6.10
2019-04-21T09:49:16.484Z,6.63
2019-04-21T09:50:19.846Z,4.13
2019-04-21T09:51:25.862Z,7.00
2019-04-21T09:52:39.729Z,6.10
2019-04-21T09:53:41.350Z,13.07
2019-04-21T09:54:53.062Z,7.83
2019-04-21T09:55:56.722Z,4.77
2019-04-21T09:57:03.278Z,6.10
2019-04-21T09:58:15.191Z,4.87
2019-04-21T09:59:18.738Z,8.27
2019-04-21T10:00:22.458Z,5.50
2019-04-21T10:01:30.916Z,3.33
2019-04-21T10:02:39.939Z,5.23
2019-04-21T10:03:46.155Z,6.53
2019-04-21T10:04:46.088Z,23.90
2019-04-21T10:05:52.045Z,4.27
2019-04-21T10:06:56.928Z,5.67
2019-04-21T10:08:01.856Z,5.93
2019-04-21T10:09:11.565Z,5.83
2019-04-21T10:10:17.136Z,4.63
2019-04-21T10:11:22.610Z,4.03
2019-04-21T10:12:28.721Z,6.30
2019-04-21T10:13:33.973Z,5.63
2019-04-21T10:14:39.014Z,6.70
2019-04-21T10:15:46.282Z,3.17
2019-04-21T10:17:00.318Z,7.10
2019-04-21T10:18:13.089Z,7.23
2019-04-21T10:19:17.951Z,7.93
2019-04-21T10:20:24.393Z,5.00
2019-04-21T10:21:29.513Z,3.87
2019-04-21T10:22:35.101Z,2.87
2019-04-21T10:23:41.572Z,6.43
2019-04-21T10:24:46.809Z,3.93
2019-04-21T10:25:52.546Z,2.23
2019-04-21T10:26:57.468Z,4.50
2019-04-21T10:28:03.283Z,3.60
2019-04-21T10:29:16.329Z,17.53
2019-04-21T10:30:16.229Z,9.53
2019-04-21T10:31:22.681Z,3.00
2019-04-21T10:32:28.213Z,4.97
2019-04-21T10:33:34.500Z,4.20
2019-04-21T10:34:39.498Z,4.67
2019-04-21T10:35:44.329Z,5.13
2019-04-21T10:36:49.387Z,5.20
2019-04-21T10:38:08.011Z,7.27
2019-04-21T10:39:02.230Z,3.57
2019-04-21T10:40:08.015Z,4.80
2019-04-21T10:41:13.004Z,7.37
2019-04-21T10:42:17.881Z,15.83
2019-04-21T10:43:24.348Z,3.43
2019-04-21T10:44:29.498Z,2.60
2019-04-21T10:45:34.903Z,4.80
2019-04-21T10:46:40.608Z,5.20
2019-04-21T10:47:47.086Z,5.83
2019-04-21T10:48:54.930Z,2.50
2019-04-21T10:50:00.489Z,4.87
2019-04-21T10:51:05.480Z,7.13
2019-04-21T10:52:17.338Z,8.03
2019-04-21T10:53:25.244Z,6.60
2019-04-21T10:54:49.133Z,4.50
2019-04-21T10:55:54.387Z,3.53
2019-04-21T10:56:45.574Z,24.33
2019-04-21T10:58:08.704Z,29.60
2019-04-21T10:59:14.344Z,29.30
2019-04-21T11:00:21.735Z,7.13
2019-04-21T11:01:31.495Z,4.17
2019-04-21T11:02:46.480Z,5.27
2019-04-21T11:03:55.911Z,9.97
2019-04-21T11:05:00.805Z,10.03
2019-04-21T11:06:06.584Z,13.10
2019-04-21T11:07:59.379Z,10.70
2019-04-21T11:08:55.379Z,4.63
2019-04-21T11:09:58.547Z,7.73
2019-04-21T11:11:03.830Z,6.37
2019-04-21T11:12:10.152Z,6.93
2019-04-21T11:13:15.100Z,6.73
2019-04-21T11:14:21.021Z,9.70
2019-04-21T11:15:27.425Z,5.37
2019-04-21T11:16:33.205Z,7.87
2019-04-21T11:17:40.622Z,7.13
2019-04-21T11:18:44.565Z,6.83
2019-04-21T11:19:50.610Z,6.33
2019-04-21T11:20:55.669Z,23.50
2019-04-21T11:22:01.056Z,11.73
2019-04-21T11:23:06.061Z,5.43
2019-04-21T11:24:12.130Z,11.20
2019-04-21T11:25:17.842Z,6.50
2019-04-21T11:26:24.165Z,3.67
2019-04-21T11:27:29.325Z,7.23
2019-04-21T11:28:34.661Z,5.13
2019-04-21T11:29:39.662Z,6.00
2019-04-21T11:30:44.590Z,5.03
2019-04-21T11:31:49.615Z,4.63
2019-04-21T11:32:55.262Z,5.93
2019-04-21T11:34:00.917Z,7.17
2019-04-21T11:35:07.346Z,5.23
2019-04-21T11:36:13.384Z,2.83
2019-04-21T11:37:20.082Z,5.67
2019-04-21T11:38:58.123Z,7.53
2019-04-21T11:39:59.370Z,9.27
2019-04-21T11:40:58.106Z,10.47
2019-04-21T11:42:08.349Z,3.93
2019-04-21T11:43:13.737Z,3.43
2019-04-21T11:44:21.525Z,5.80
2019-04-21T11:45:34.522Z,5.30
2019-04-21T11:46:40.368Z,6.63
2019-04-21T11:48:03.962Z,6.37
2019-04-21T11:49:10.423Z,4.00
2019-04-21T11:50:15.419Z,4.67
2019-04-21T11:51:20.668Z,5.10
2019-04-21T11:52:26.850Z,3.10
2019-04-21T11:53:32.857Z,8.63
2019-04-21T11:54:38.052Z,5.13
2019-04-21T11:55:46.689Z,2.73
2019-04-21T11:56:50.649Z,5.57
2019-04-21T11:57:56.524Z,5.13
2019-04-21T11:59:01.969Z,6.97
2019-04-21T12:00:07.578Z,4.93
2019-04-21T12:01:13.895Z,4.03
2019-04-21T12:02:19.422Z,2.60
2019-04-21T12:03:24.716Z,3.17
2019-04-21T12:04:29.919Z,3.50
2019-04-21T12:05:35.226Z,2.77
2019-04-21T12:06:44.480Z,5.50
2019-04-21T12:07:47.259Z,11.87
2019-04-21T12:08:54.942Z,3.83
2019-04-21T12:09:59.676Z,4.97
2019-04-21T12:11:05.325Z,5.23
2019-04-21T12:12:11.513Z,4.40
2019-04-21T12:13:16.757Z,6.50
2019-04-21T12:14:23.816Z,5.50
2019-04-21T12:15:29.198Z,4.03
2019-04-21T12:16:35.088Z,4.03
2019-04-21T12:17:41.699Z,4.63
2019-04-21T12:18:47.212Z,7.43
2019-04-21T12:19:52.699Z,8.67
2019-04-21T12:20:57.999Z,9.13
2019-04-21T12:22:10.984Z,4.70
2019-04-21T12:23:09.672Z,3.80
2019-04-21T12:24:15.257Z,3.40
2019-04-21T12:25:21.029Z,2.80
2019-04-21T12:26:26.445Z,4.07
2019-04-21T12:27:32.003Z,6.23
2019-04-21T12:28:37.620Z,4.73
2019-04-21T12:29:43.949Z,3.83
2019-04-21T12:30:53.645Z,3.07
2019-04-21T12:32:36.327Z,6.27
2019-04-21T12:34:09.915Z,4.90
2019-04-21T12:35:15.809Z,4.30
2019-04-21T12:36:21.980Z,5.60
2019-04-21T12:37:28.838Z,4.20
2019-04-21T12:38:42.682Z,4.20
2019-04-21T12:39:41.250Z,3.70
2019-04-21T12:40:46.579Z,5.27
2019-04-21T12:41:51.664Z,5.77
2019-04-21T12:42:56.846Z,4.73
2019-04-21T12:44:02.527Z,3.10
2019-04-21T12:45:09.740Z,6.03
2019-04-21T12:46:15.940Z,5.17
2019-04-21T12:47:21.731Z,3.23
2019-04-21T12:48:28.167Z,7.07
2019-04-21T12:49:33.869Z,2.37
2019-04-21T12:50:39.589Z,4.90
2019-04-21T12:51:46.128Z,15.07
2019-04-21T12:52:51.632Z,6.47
2019-04-21T12:53:57.438Z,3.10
2019-04-21T12:55:03.728Z,3.40
2019-04-21T12:56:09.773Z,4.93
2019-04-21T12:57:14.770Z,7.37
2019-04-21T12:58:21.361Z,3.60
2019-04-21T12:59:29.217Z,3.40
2019-04-21T13:00:33.565Z,5.23
2019-04-21T13:01:39.012Z,6.27
2019-04-21T13:02:45.496Z,9.83
2019-04-21T13:03:52.031Z,3.63
2019-04-21T13:04:57.791Z,3.63
2019-04-21T13:06:03.519Z,6.10
2019-04-21T13:07:09.838Z,9.17
2019-04-21T13:08:15.459Z,4.57
2019-04-21T13:09:22.130Z,4.07
2019-04-21T13:10:28.440Z,4.03
2019-04-21T13:11:34.973Z,3.97
2019-04-21T13:12:41.657Z,5.77
2019-04-21T13:13:48.093Z,4.67
2019-04-21T13:14:55.662Z,8.53
2019-04-21T13:16:01.324Z,6.23
2019-04-21T13:17:07.638Z,6.47
2019-04-21T13:18:14.234Z,7.27
2019-04-21T13:19:20.973Z,6.23
2019-04-21T13:20:27.483Z,4.10
2019-04-21T13:21:33.862Z,2.53
2019-04-21T13:22:39.787Z,3.60
2019-04-21T13:23:45.172Z,3.30
2019-04-21T13:24:51.637Z,6.00
2019-04-21T13:25:56.889Z,4.90
2019-04-21T13:27:03.625Z,7.37
2019-04-21T13:28:10.347Z,6.20
2019-04-21T13:29:16.521Z,4.75
2019-04-21T13:30:22.371Z,3.00
2019-04-21T13:31:27.519Z,5.90
2019-04-21T13:32:33.199Z,4.47
2019-04-21T13:33:38.260Z,4.85
2019-04-21T13:34:44.245Z,3.50
2019-04-21T13:35:50.795Z,3.62
2019-04-21T13:36:57.358Z,3.22
2019-04-21T13:38:02.956Z,3.98
2019-04-21T13:41:12.223Z,2.57
2019-04-21T13:42:10.993Z,4.80
2019-04-21T13:43:10.148Z,4.28
2019-04-21T13:44:16.353Z,4.95
2019-04-21T13:45:23.841Z,12.73
2019-04-21T13:46:28.957Z,5.42
2019-04-21T13:47:34.657Z,4.70
2019-04-21T13:48:40.333Z,3.80
2019-04-21T13:49:45.502Z,3.47
2019-04-21T13:50:51.223Z,9.53
2019-04-21T13:51:56.293Z,8.53
2019-04-21T13:53:02.721Z,6.10
2019-04-21T13:54:09.531Z,4.92
2019-04-21T13:55:15.833Z,7.15
2019-04-21T13:56:22.581Z,4.58
2019-04-21T13:57:28.476Z,10.05
2019-04-21T13:58:34.582Z,5.92
2019-04-21T13:59:40.363Z,6.75
2019-04-21T14:00:45.743Z,6.80
2019-04-21T14:01:51.992Z,6.30
2019-04-21T14:02:58.645Z,7.50
2019-04-21T14:04:05.183Z,5.50
2019-04-21T14:05:13.456Z,7.87
2019-04-21T14:06:18.343Z,6.05
2019-04-21T14:07:23.990Z,13.93
2019-04-21T14:08:29.405Z,6.53
2019-04-21T14:09:43.750Z,8.43
2019-04-21T14:10:41.751Z,6.08
2019-04-21T14:11:47.434Z,6.35
2019-04-21T14:12:54.116Z,7.08
2019-04-21T14:14:00.512Z,8.10
2019-04-21T14:15:06.320Z,7.30
2019-04-21T14:16:11.830Z,11.93
2019-04-21T14:17:17.458Z,7.00
2019-04-21T14:18:22.713Z,6.37
2019-04-21T14:19:27.931Z,7.30
2019-04-21T14:20:33.339Z,6.90
2019-04-21T14:21:39.193Z,60.23
2019-04-21T14:22:44.327Z,6.62
2019-04-21T14:23:52.237Z,7.30
2019-04-21T14:24:56.279Z,7.37
2019-04-21T14:26:03.890Z,7.08
2019-04-21T14:27:10.092Z,6.67
2019-04-21T14:28:15.656Z,7.60
2019-04-21T14:29:21.754Z,6.28
2019-04-21T14:30:28.403Z,7.95
2019-04-21T14:31:34.677Z,5.35
2019-04-21T14:32:40.200Z,7.53
2019-04-21T14:33:45.915Z,6.00
2019-04-21T14:34:53.863Z,8.43
2019-04-21T14:35:58.886Z,7.97
2019-04-21T14:37:04.525Z,6.25
2019-04-21T14:38:10.768Z,6.87
2019-04-21T14:39:16.661Z,6.27
2019-04-21T14:40:25.810Z,6.58
2019-04-21T14:41:30.528Z,5.47
2019-04-21T14:42:36.054Z,5.17
2019-04-21T14:43:41.772Z,5.25
2019-04-21T14:44:47.254Z,5.83
2019-04-21T14:46:11.158Z,5.67
2019-04-21T14:47:25.122Z,4.60
2019-04-21T14:48:48.759Z,4.67
2019-04-21T14:50:22.370Z,4.95
2019-04-21T14:51:50.240Z,4.62
2019-04-21T14:53:11.834Z,4.90
2019-04-21T14:54:38.932Z,6.60
2019-04-21T14:55:46.544Z,6.60
2019-04-21T14:56:51.612Z,10.13
2019-04-21T14:57:57.107Z,5.03
2019-04-21T14:59:04.117Z,5.47
2019-04-21T15:00:13.257Z,4.90
2019-04-21T15:01:19.763Z,4.00
2019-04-21T15:02:25.561Z,5.23
2019-04-21T15:03:31.947Z,6.07
2019-04-21T15:04:37.676Z,4.90
2019-04-21T15:05:42.989Z,4.33
2019-04-21T15:06:48.011Z,5.40
2019-04-21T15:07:53.206Z,4.27
2019-04-21T15:08:58.155Z,5.97
2019-04-21T15:10:11.572Z,4.50
2019-04-21T15:11:10.090Z,6.70
2019-04-21T15:12:16.197Z,6.07
2019-04-21T15:13:21.819Z,4.50
2019-04-21T15:14:27.090Z,5.50
2019-04-21T15:15:32.419Z,13.47
2019-04-21T15:16:38.674Z,5.50
2019-04-21T15:17:44.187Z,6.63
2019-04-21T15:18:50.487Z,11.10
2019-04-21T15:19:59.681Z,5.93
2019-04-21T15:21:03.646Z,5.97
2019-04-21T15:22:10.118Z,5.13
2019-04-21T15:23:15.269Z,5.77
2019-04-21T15:24:20.489Z,5.30
2019-04-21T15:25:26.059Z,4.60
2019-04-21T15:26:32.386Z,5.83
2019-04-21T15:27:37.407Z,6.80
2019-04-21T15:28:42.560Z,5.40
2019-04-21T15:29:48.518Z,5.67
2019-04-21T15:30:54.427Z,5.73
2019-04-21T15:32:00.750Z,5.90
2019-04-21T15:33:06.461Z,4.70
2019-04-21T15:34:13.012Z,6.70
2019-04-21T15:35:19.546Z,5.33
2019-04-21T15:36:25.039Z,3.37
2019-04-21T15:37:31.569Z,5.63
2019-04-21T15:38:38.036Z,6.30
2019-04-21T15:39:44.690Z,4.30
2019-04-21T15:40:55.479Z,7.07
2019-04-21T15:41:58.686Z,3.40
2019-04-21T15:43:04.384Z,4.30
2019-04-21T15:44:09.921Z,6.17
2019-04-21T15:45:16.645Z,4.00
2019-04-21T15:46:22.612Z,3.97
2019-04-21T15:47:28.262Z,3.50
2019-04-21T15:48:34.842Z,4.37
2019-04-21T15:50:02.920Z,4.50
2019-04-21T15:51:05.598Z,4.40
2019-04-21T15:52:09.787Z,4.53
2019-04-21T15:53:15.932Z,4.50
2019-04-21T15:54:22.537Z,5.37
2019-04-21T15:55:46.524Z,5.33
2019-04-21T15:56:58.609Z,9.63
2019-04-21T15:58:12.756Z,5.87
2019-04-21T15:59:46.572Z,5.50
2019-04-21T16:01:00.616Z,5.13